Time;durP1;ratioP1;P1;durP2;ratioP2;P2;SDS_P1;SDS_P2;PMS_P1;PMS_P2;Temp;Humidity;BMP_temperature;BMP_pressure;BME280_temperature;BME280_humidity;BME280_pressure;Samples;Min_cycle;Max_cycle;Signal;HPM_P1;HPM_P2
2022/05/20 00:01:12;;;;;;;4.05;3.17;;;;;;;13.27;100.00;102153.28;4886743;29;20033;-82
2022/05/20 00:03:41;;;;;;;3.97;2.88;;;;;;;13.25;100.00;102160.31;4857782;29;20062;-82
2022/05/20 00:06:10;;;;;;;6.82;4.05;;;;;;;13.23;100.00;102170.00;4886923;29;20049;-81
2022/05/20 00:08:39;;;;;;;6.88;4.10;;;;;;;13.24;100.00;102173.53;4862947;29;20056;-81
2022/05/20 00:11:08;;;;;;;9.87;4.27;;;;;;;13.23;100.00;102169.09;4865335;29;20180;-81
2022/05/20 00:13:36;;;;;;;6.32;4.32;;;;;;;13.18;100.00;102165.53;4841744;29;20041;-81
2022/05/20 00:16:05;;;;;;;7.68;4.00;;;;;;;13.14;100.00;102163.72;4839323;29;20138;-81
2022/05/20 00:18:33;;;;;;;8.50;4.40;;;;;;;13.12;100.00;102176.00;4841111;29;20059;-80
2022/05/20 00:21:02;;;;;;;6.47;4.50;;;;;;;13.09;100.00;102173.34;4823121;29;20053;-81
2022/05/20 00:23:31;;;;;;;11.60;5.20;;;;;;;13.06;100.00;102175.06;4848892;29;20052;-81
2022/05/20 00:26:00;;;;;;;5.87;4.57;;;;;;;13.02;100.00;102173.25;4834579;29;20256;-81
2022/05/20 00:28:29;;;;;;;15.55;6.38;;;;;;;13.02;100.00;102173.25;4866750;29;20301;-82
2022/05/20 00:31:03;;;;;;;9.10;5.78;;;;;;;13.02;100.00;102177.63;4867149;29;20048;-82
2022/05/20 00:33:34;;;;;;;7.50;5.30;;;;;;;13.02;100.00;102173.25;4876317;29;20065;-81
2022/05/20 00:36:02;;;;;;;7.72;6.28;;;;;;;13.04;100.00;102173.25;4865844;29;20050;-81
2022/05/20 00:38:31;;;;;;;14.45;7.55;;;;;;;13.04;100.00;102162.66;4868863;29;20600;-81
2022/05/20 00:41:00;;;;;;;9.07;7.05;;;;;;;13.04;100.00;102166.22;4845534;29;20550;-81
2022/05/20 00:43:37;;;;;;;7.07;6.32;;;;;;;13.03;100.00;102172.38;4866797;29;20053;-81
2022/05/20 00:46:10;;;;;;;8.57;6.03;;;;;;;13.01;100.00;102176.75;4887741;29;20041;-81
2022/05/20 00:48:39;;;;;;;11.10;6.50;;;;;;;12.99;100.00;102172.31;4875355;29;20056;-81
2022/05/20 00:51:25;;;;;;;8.75;7.05;;;;;;;12.96;100.00;102172.25;4850674;29;20259;-81
2022/05/20 00:54:03;;;;;;;9.02;6.35;;;;;;;12.92;100.00;102167.78;4864563;29;20187;-81
2022/05/20 00:56:37;;;;;;;11.93;7.35;;;;;;;12.90;100.00;102173.06;4858456;29;20052;-80
2022/05/20 00:59:10;;;;;;;9.07;7.68;;;;;;;12.86;100.00;102166.84;4871228;29;20045;-80
2022/05/20 01:01:38;;;;;;;11.05;7.20;;;;;;;12.80;100.00;102165.88;4889868;29;20037;-81
2022/05/20 01:04:07;;;;;;;11.13;7.60;;;;;;;12.76;100.00;102170.22;4838687;29;20057;-80
2022/05/20 01:06:36;;;;;;;9.00;8.20;;;;;;;12.72;100.00;102176.34;4872119;29;20384;-81
2022/05/20 01:09:06;;;;;;;9.65;7.20;;;;;;;12.70;100.00;102175.38;4853221;29;20060;-81
2022/05/20 01:11:38;;;;;;;8.98;7.22;;;;;;;12.66;100.00;102173.56;4874063;29;20406;-81
2022/05/20 01:14:08;;;;;;;13.05;8.38;;;;;;;12.64;100.00;102168.25;4871450;29;20045;-81
2022/05/20 01:16:37;;;;;;;10.23;7.97;;;;;;;12.62;100.00;102171.75;4872699;29;20537;-81
2022/05/20 01:19:16;;;;;;;11.50;8.55;;;;;;;12.58;100.00;102164.63;4864798;29;20232;-82
2022/05/20 01:21:44;;;;;;;13.07;9.57;;;;;;;12.57;100.00;102165.47;4868778;29;20053;-82
2022/05/20 01:24:13;;;;;;;12.65;8.30;;;;;;;12.55;100.00;102164.56;4833851;29;20041;-81
2022/05/20 01:26:41;;;;;;;11.05;8.35;;;;;;;12.54;100.00;102161.03;4849686;29;20044;-81
2022/05/20 01:29:09;;;;;;;14.00;9.57;;;;;;;12.53;100.00;102155.72;4829253;29;20441;-81
2022/05/20 01:31:38;;;;;;;13.63;9.95;;;;;;;12.50;100.00;102156.56;4838986;29;20038;-81
2022/05/20 01:34:06;;;;;;;9.82;8.90;;;;;;;12.48;100.00;102164.47;4847909;29;20057;-81
2022/05/20 01:36:35;;;;;;;12.60;9.82;;;;;;;12.46;100.00;102165.34;4871112;29;20041;-81
2022/05/20 01:39:03;;;;;;;13.02;10.13;;;;;;;12.42;100.00;102174.97;4863905;29;23131;-81
2022/05/20 01:41:55;;;;;;;13.07;9.60;;;;;;;12.38;100.00;102173.13;4874425;29;20052;-81
2022/05/20 01:44:24;;;;;;;12.82;10.65;;;;;;;12.38;100.00;102181.06;4875923;29;20049;-81
2022/05/20 01:47:04;;;;;;;13.18;9.75;;;;;;;12.36;100.00;102176.59;4856271;29;20064;-82
2022/05/20 01:49:44;;;;;;;12.30;10.10;;;;;;;12.37;100.00;102170.47;4891406;29;20517;-80
2022/05/20 01:52:23;;;;;;;13.18;9.93;;;;;;;12.36;100.00;102168.66;4842258;29;20088;-81
2022/05/20 01:55:21;;;;;;;12.30;9.95;;;;;;;12.34;100.00;102165.13;4855036;29;20056;-81
2022/05/20 01:57:57;;;;;;;12.27;10.55;;;;;;;12.31;100.00;102171.25;4865324;29;20403;-81
2022/05/20 02:00:29;;;;;;;12.05;10.27;;;;;;;12.29;100.00;102172.97;4855249;29;20072;-81
2022/05/20 02:03:05;;;;;;;11.07;9.88;;;;;;;12.28;100.00;102169.41;4875723;29;20354;-81
2022/05/20 02:05:51;;;;;;;14.35;9.43;;;;;;;12.29;100.00;102157.13;4879333;29;20057;-82
2022/05/20 02:08:30;;;;;;;12.18;10.70;;;;;;;12.29;100.00;102163.28;4866432;29;20499;-81
2022/05/20 02:11:34;;;;;;;13.30;9.35;;;;;;;12.27;100.00;102156.22;4871240;29;20052;-82
2022/05/20 02:14:31;;;;;;;15.05;11.20;;;;;;;12.26;100.00;102154.41;4849288;29;20049;-82
2022/05/20 02:17:09;;;;;;;14.40;11.25;;;;;;;12.20;100.00;102156.97;4865384;29;20045;-82
2022/05/20 02:19:55;;;;;;;14.00;10.82;;;;;;;12.18;100.00;102169.25;4893094;29;20053;-82
2022/05/20 02:22:29;;;;;;;16.20;11.18;;;;;;;12.17;100.00;102164.81;4893077;29;20044;-82
2022/05/20 02:25:01;;;;;;;15.35;11.85;;;;;;;12.15;100.00;102164.78;4885182;29;20053;-82
2022/05/20 02:27:35;;;;;;;17.08;12.05;;;;;;;12.13;100.00;102170.91;4872193;29;20052;-81
2022/05/20 02:30:15;;;;;;;14.82;12.18;;;;;;;12.08;100.00;102174.38;4874976;29;20049;-81
2022/05/20 02:32:59;;;;;;;13.25;11.95;;;;;;;12.04;100.00;102169.00;4842424;29;20053;-81
2022/05/20 02:35:28;;;;;;;13.48;11.25;;;;;;;12.00;100.00;102159.22;4861241;29;20045;-81
2022/05/20 02:38:07;;;;;;;18.90;12.13;;;;;;;11.96;100.00;102157.41;4853008;29;20069;-81
2022/05/20 02:40:36;;;;;;;16.67;12.02;;;;;;;11.93;100.00;102137.13;4877831;29;20540;-81
2022/05/20 02:43:04;;;;;;;18.92;13.90;;;;;;;11.89;100.00;102145.81;4872383;29;20272;-81
2022/05/20 02:45:33;;;;;;;16.55;14.82;;;;;;;11.87;100.00;102134.31;4850699;29;20053;-81
2022/05/20 02:48:02;;;;;;;20.13;14.60;;;;;;;11.85;100.00;102138.66;4829206;29;20398;-81
2022/05/20 02:50:30;;;;;;;20.88;14.98;;;;;;;11.81;100.00;102150.03;4874965;29;20375;-80
2022/05/20 02:53:00;;;;;;;19.50;16.10;;;;;;;11.80;100.00;102140.34;4871098;29;20502;-80
2022/05/20 02:55:28;;;;;;;20.15;16.60;;;;;;;11.77;100.00;102142.94;4856592;29;20053;-81
2022/05/20 02:57:57;;;;;;;21.33;16.67;;;;;;;11.75;100.00;102150.81;4869775;29;20045;-81
2022/05/20 03:06:00;;;;;;;21.98;18.13;;;;;;;11.73;100.00;102128.78;4843955;29;20554;-82
2022/05/20 03:08:28;;;;;;;25.48;18.55;;;;;;;11.73;100.00;102118.22;4862050;29;20064;-82
2022/05/20 03:10:56;;;;;;;24.67;19.63;;;;;;;11.73;100.00;102126.13;4854642;29;20041;-81
2022/05/20 03:13:25;;;;;;;23.42;19.02;;;;;;;11.71;100.00;102119.94;4843761;29;20513;-82
2022/05/20 03:15:53;;;;;;;22.95;19.38;;;;;;;11.73;100.00;102135.81;4860285;29;20263;-81
2022/05/20 03:18:22;;;;;;;26.40;19.38;;;;;;;11.71;100.00;102127.84;4863025;29;20056;-80
2022/05/20 03:20:51;;;;;;;22.52;19.25;;;;;;;11.70;100.00;102133.97;4860766;29;20057;-81
2022/05/20 03:23:19;;;;;;;26.17;20.52;;;;;;;11.67;100.00;102134.81;4877571;29;20494;-81
2022/05/20 03:25:48;;;;;;;25.67;20.15;;;;;;;11.66;100.00;102142.72;4862678;29;20060;-81
2022/05/20 03:28:16;;;;;;;24.63;19.90;;;;;;;11.65;100.00;102136.56;4886967;29;20052;-81
2022/05/20 03:30:45;;;;;;;22.90;18.92;;;;;;;11.64;100.00;102136.50;4852594;29;20045;-80
2022/05/20 03:33:16;;;;;;;24.48;18.63;;;;;;;11.62;100.00;102128.56;4877375;29;20113;-80
2022/05/20 03:35:44;;;;;;;21.55;19.25;;;;;;;11.62;100.00;102132.97;4877054;29;20402;-81
2022/05/20 03:38:12;;;;;;;25.88;20.50;;;;;;;11.62;100.00;102130.31;4876976;29;20045;-80
2022/05/20 03:40:41;;;;;;;25.80;19.38;;;;;;;11.62;100.00;102140.88;4859485;29;20056;-80
2022/05/20 03:43:09;;;;;;;28.70;20.50;;;;;;;11.61;100.00;102142.63;4853722;29;20056;-80
2022/05/20 03:45:42;;;;;;;20.83;18.60;;;;;;;11.60;100.00;102132.03;4845955;29;20534;-80
2022/05/20 03:48:11;;;;;;;25.73;20.33;;;;;;;11.61;100.00;102131.19;4871082;29;20045;-81
2022/05/20 03:50:39;;;;;;;29.75;19.05;;;;;;;11.58;100.00;102134.66;4877496;29;20045;-81
2022/05/20 03:53:08;;;;;;;22.33;18.98;;;;;;;11.59;100.00;102131.16;4874838;29;20651;-80
2022/05/20 03:55:36;;;;;;;24.02;19.13;;;;;;;11.58;100.00;102124.09;4875234;29;20060;-81
2022/05/20 03:58:05;;;;;;;21.77;18.67;;;;;;;11.57;100.00;102138.16;4855696;29;20170;-81
2022/05/20 04:01:56;;;;;;;21.45;19.08;;;;;;;11.57;100.00;102138.16;4856310;29;20057;-80
2022/05/20 04:03:22;;;;;;;24.75;19.75;;;;;;;11.57;100.00;102138.16;4869919;29;20053;-81
2022/05/20 04:05:53;;;;;;;25.90;19.33;;;;;;;11.58;100.00;102144.31;4873969;29;20041;-82
2022/05/20 04:08:22;;;;;;;22.10;19.20;;;;;;;11.59;100.00;102148.75;4860547;29;20447;-82
2022/05/20 04:10:51;;;;;;;23.45;19.75;;;;;;;11.59;100.00;102146.13;4873939;29;20052;-82
2022/05/20 04:13:21;;;;;;;24.15;18.25;;;;;;;11.60;100.00;102161.97;4874623;29;20053;-81
2022/05/20 04:15:50;;;;;;;22.23;19.13;;;;;;;11.59;100.00;102154.91;4873131;29;20041;-81
2022/05/20 04:18:18;;;;;;;27.33;20.67;;;;;;;11.62;100.00;102149.69;4860564;29;20049;-81
2022/05/20 04:20:47;;;;;;;28.52;20.08;;;;;;;11.66;100.00;102158.56;4843514;29;20050;-81
2022/05/20 04:23:18;;;;;;;25.20;20.50;;;;;;;11.70;100.00;102169.22;4858977;29;20057;-80
2022/05/20 04:25:47;;;;;;;22.25;18.40;;;;;;;11.77;100.00;102177.25;4874433;29;20079;-81
2022/05/20 04:28:16;;;;;;;28.27;19.42;;;;;;;11.82;100.00;102175.59;4856897;29;20052;-79
2022/05/20 04:30:44;;;;;;;22.38;17.27;;;;;;;11.89;100.00;102183.72;4850756;29;20057;-82
2022/05/20 04:33:13;;;;;;;23.17;17.25;;;;;;;11.96;100.00;102182.06;4860053;29;20275;-81
2022/05/20 04:35:41;;;;;;;26.50;19.27;;;;;;;12.02;100.00;102179.56;4845225;29;20356;-81
2022/05/20 04:38:10;;;;;;;27.73;18.85;;;;;;;12.07;100.00;102193.72;4876472;29;20175;-81
2022/05/20 04:40:38;;;;;;;25.55;15.35;;;;;;;12.12;100.00;102191.19;4862570;29;20045;-81
2022/05/20 04:48:41;;;;;;;27.75;16.98;;;;;;;12.26;100.00;102199.34;4865353;29;20053;-82
2022/05/20 04:51:10;;;;;;;24.38;15.75;;;;;;;12.39;100.00;102208.38;4862525;29;20080;-81
2022/05/20 04:56:25;;;;;;;21.92;16.08;;;;;;;12.82;100.00;102206.47;4865290;29;20175;-80
2022/05/20 04:58:53;;;;;;;21.10;14.25;;;;;;;13.13;100.00;102206.91;4875087;29;20048;-80
2022/05/20 05:01:22;;;;;;;16.70;13.63;;;;;;;13.53;100.00;102208.34;4863190;29;20052;-81
2022/05/20 05:03:50;;;;;;;18.20;13.15;;;;;;;13.91;100.00;102194.66;4874810;29;20042;-81
2022/05/20 05:06:18;;;;;;;15.35;11.68;;;;;;;14.41;100.00;102196.06;4825965;29;20025;-83
2022/05/20 05:08:48;;;;;;;13.18;11.70;;;;;;;14.75;100.00;102191.94;4892743;29;20049;-81
2022/05/20 05:11:16;;;;;;;14.10;11.30;;;;;;;15.04;100.00;102193.91;4876491;29;20060;-82
2022/05/20 05:13:44;;;;;;;12.77;10.43;;;;;;;15.14;100.00;102192.19;4851881;29;20134;-81
2022/05/20 05:16:13;;;;;;;15.63;10.75;;;;;;;15.09;100.00;102194.81;4836135;29;20275;-80
2022/05/20 05:18:41;;;;;;;14.43;11.30;;;;;;;14.96;100.00;102187.66;4841131;29;20057;-81
2022/05/20 05:21:14;;;;;;;13.82;11.43;;;;;;;14.77;100.00;102187.53;4865573;29;20057;-81
2022/05/20 05:23:42;;;;;;;12.98;10.52;;;;;;;14.62;100.00;102182.13;4853638;29;20068;-81
2022/05/20 05:26:10;;;;;;;15.55;12.00;;;;;;;14.53;100.00;102184.66;4845466;29;20546;-81
2022/05/20 05:28:39;;;;;;;17.23;11.68;;;;;;;14.58;100.00;102188.28;4856207;29;20045;-81
2022/05/20 05:31:07;;;;;;;14.52;10.52;;;;;;;14.92;100.00;102191.19;4874119;29;20499;-80
2022/05/20 05:33:36;;;;;;;17.60;11.40;;;;;;;15.33;100.00;102190.50;4847861;29;20045;-81
2022/05/20 05:36:04;;;;;;;13.43;10.23;;;;;;;16.00;100.00;102194.34;4851010;29;20053;-80
2022/05/20 05:38:33;;;;;;;11.25;9.27;;;;;;;16.76;100.00;102193.47;4871584;29;20037;-82
2022/05/20 05:41:01;;;;;;;10.98;8.93;;;;;;;17.48;100.00;102206.66;4859023;29;20065;-81
2022/05/20 05:43:30;;;;;;;10.27;9.15;;;;;;;18.11;100.00;102193.03;4878782;29;20375;-82
2022/05/20 05:45:58;;;;;;;12.05;8.00;;;;;;;18.73;100.00;102192.50;4875552;29;20041;-82
2022/05/20 05:48:27;;;;;;;9.82;7.93;;;;;;;19.31;100.00;102191.06;4870049;29;20526;-81
2022/05/20 05:50:56;;;;;;;12.10;8.35;;;;;;;19.80;100.00;102192.25;4876669;29;20249;-81
2022/05/20 05:53:25;;;;;;;12.15;7.53;;;;;;;20.02;100.00;102179.47;4857561;29;20040;-81
2022/05/20 05:55:58;;;;;;;9.23;8.13;;;;;;;19.88;100.00;102182.31;4880668;29;20395;-81
2022/05/20 05:58:28;;;;;;;15.60;8.30;;;;;;;19.69;100.00;102189.69;4869799;29;20380;-80
2022/05/20 06:00:57;;;;;;;11.45;7.70;;;;;;;19.29;100.00;102195.53;4870682;29;20507;-80
2022/05/20 06:03:26;;;;;;;10.50;7.78;;;;;;;18.89;100.00;102191.50;4845077;29;20045;-79
2022/05/20 06:05:55;;;;;;;11.68;8.35;;;;;;;18.63;100.00;102183.72;4853416;29;20502;-79
2022/05/20 06:08:24;;;;;;;12.30;7.90;;;;;;;18.37;100.00;102189.25;4859634;29;20495;-79
2022/05/20 06:10:59;;;;;;;12.25;8.02;;;;;;;18.21;100.00;102196.50;4864102;29;20064;-80
2022/05/20 06:13:29;;;;;;;;;;;;;;;18.18;100.00;102200.97;4868994;29;20079;-81
2022/05/20 06:15:57;;;;;;;11.18;7.80;;;;;;;18.22;100.00;102192.97;4873201;29;19931;-81
2022/05/20 06:18:27;;;;;;;14.10;8.20;;;;;;;18.10;100.00;102193.91;4848776;29;20057;-80
2022/05/20 06:20:55;;;;;;;13.32;7.95;;;;;;;17.84;100.00;102185.16;4872721;29;20060;-81
2022/05/20 06:23:24;;;;;;;11.35;7.93;;;;;;;17.53;100.00;102188.88;4855901;29;20041;-81
2022/05/20 06:25:53;;;;;;;12.35;7.80;;;;;;;17.25;100.00;102185.41;4864187;29;20061;-80
2022/05/20 06:28:41;;;;;;;12.20;8.23;;;;;;;16.93;100.00;102188.16;4880810;29;20297;-80
2022/05/20 06:31:10;;;;;;;10.40;8.27;;;;;;;16.68;100.00;102193.50;4872273;29;20045;-81
2022/05/20 06:33:39;;;;;;;9.85;8.52;;;;;;;16.47;100.00;102199.72;4883468;29;20429;-81
2022/05/20 06:41:53;;;;;;;13.07;7.30;;;;;;;16.24;100.00;102188.16;4878259;29;20049;-81
2022/05/20 06:44:24;;;;;;;11.77;6.53;;;;;;;16.24;100.00;102182.81;4876287;29;20075;-81
2022/05/20 06:46:53;;;;;;;11.48;6.05;;;;;;;16.29;100.00;102170.44;4859430;29;20061;-82
2022/05/20 06:49:22;;;;;;;8.50;4.17;;;;;;;16.34;100.00;102164.22;4859653;29;20391;-81
2022/05/20 06:51:54;;;;;;;5.85;4.65;;;;;;;16.50;100.00;102162.47;4845108;29;20045;-81
2022/05/20 06:54:23;;;;;;;10.15;7.15;;;;;;;16.85;100.00;102158.03;4848513;29;20044;-81
2022/05/20 06:56:51;;;;;;;9.95;6.68;;;;;;;17.06;100.00;102160.63;4875170;29;20060;-81
2022/05/20 06:59:23;;;;;;;12.45;6.50;;;;;;;17.12;100.00;102154.38;4871350;29;20073;-81
2022/05/20 07:01:54;;;;;;;13.02;6.22;;;;;;;17.11;100.00;102152.63;4868657;29;20041;-81
2022/05/20 07:04:42;;;;;;;6.55;5.35;;;;;;;17.01;100.00;102143.75;4837802;29;20697;-80
2022/05/20 07:07:11;;;;;;;15.30;8.93;;;;;;;16.89;100.00;102131.38;4799716;29;20180;-82
2022/05/20 07:09:39;;;;;;;8.07;5.25;;;;;;;16.76;100.00;102125.16;4864488;29;20052;-82
2022/05/20 07:12:09;;;;;;;7.55;4.55;;;;;;;16.69;100.00;102134.06;4834495;29;20056;-82
2022/05/20 07:14:38;;;;;;;10.10;4.67;;;;;;;16.65;100.00;102140.25;4868971;29;20045;-81
2022/05/20 07:17:06;;;;;;;9.18;5.78;;;;;;;16.61;100.00;102143.81;4850137;29;20037;-80
2022/05/20 07:19:39;;;;;;;7.95;5.47;;;;;;;16.58;100.00;102135.84;4855875;29;20049;-82
2022/05/20 07:22:09;;;;;;;10.65;6.00;;;;;;;16.54;100.00;102128.72;4856016;29;20467;-82
2022/05/20 07:24:38;;;;;;;8.38;4.85;;;;;;;16.53;100.00;102129.63;4853002;29;20041;-81
2022/05/20 07:27:09;;;;;;;8.50;5.28;;;;;;;16.52;100.00;102142.06;4847871;29;20048;-82
2022/05/20 07:29:38;;;;;;;9.32;5.32;;;;;;;16.53;100.00;102148.25;4845361;29;20049;-82
2022/05/20 07:32:07;;;;;;;9.63;6.45;;;;;;;16.62;100.00;102140.28;4856844;29;20057;-82
2022/05/20 07:34:35;;;;;;;10.80;6.30;;;;;;;16.70;100.00;102135.81;4860222;29;20040;-81
2022/05/20 07:37:04;;;;;;;9.15;6.35;;;;;;;16.81;100.00;102127.81;4859642;29;20705;-81
2022/05/20 07:39:33;;;;;;;9.50;5.97;;;;;;;16.99;100.00;102139.34;4853873;29;20041;-81
2022/05/20 07:42:01;;;;;;;9.63;6.60;;;;;;;17.18;100.00;102141.03;4842896;29;20059;-81
2022/05/20 07:44:30;;;;;;;8.68;6.57;;;;;;;17.30;100.00;102132.13;4844702;29;20754;-81
2022/05/20 07:46:59;;;;;;;9.40;7.03;;;;;;;17.34;100.00;102140.09;4834107;29;20069;-81
2022/05/20 07:49:28;;;;;;;10.13;6.13;;;;;;;17.38;100.00;102124.97;4822187;29;20053;-82
2022/05/20 07:51:57;;;;;;;7.15;4.68;;;;;;;17.37;100.00;102123.19;4858990;29;20406;-81
2022/05/20 07:54:27;;;;;;;8.52;5.20;;;;;;;17.40;100.00;102127.66;4847958;29;20182;-81
2022/05/20 07:56:59;;;;;;;7.47;5.45;;;;;;;17.49;100.00;102132.94;4870379;29;20521;-81
2022/05/20 07:59:49;;;;;;;8.50;5.65;;;;;;;17.59;100.00;102123.09;4844147;29;20054;-82
2022/05/20 08:02:22;;;;;;;4.75;4.22;;;;;;;17.73;100.00;102116.81;4862371;29;20060;-81
2022/05/20 08:04:56;;;;;;;8.60;5.05;;;;;;;17.82;100.00;102125.63;4865458;29;20053;-81
2022/05/20 08:07:31;;;;;;;9.35;4.90;;;;;;;17.81;100.00;102123.88;4851310;29;20041;-81
2022/05/20 08:10:03;;;;;;;10.02;4.80;;;;;;;17.80;100.00;102127.41;4856084;29;20052;-81
2022/05/20 08:12:32;;;;;;;9.43;4.93;;;;;;;17.83;100.00;102132.75;4856494;29;20057;-81
2022/05/20 08:15:01;;;;;;;10.07;5.63;;;;;;;17.81;100.00;102124.75;4855297;29;20042;-82
2022/05/20 08:17:29;;;;;;;7.00;5.60;;;;;;;17.79;100.00;102120.31;4849158;29;20061;-82
2022/05/20 08:19:58;;;;;;;10.07;5.57;;;;;;;17.78;100.00;102106.09;4829465;29;20419;-82
2022/05/20 08:22:27;;;;;;;8.32;4.80;;;;;;;17.83;100.00;102111.41;4855937;29;20041;-81
2022/05/20 08:24:57;;;;;;;10.45;5.55;;;;;;;17.84;99.14;102102.50;4862931;29;20499;-81
2022/05/20 08:27:27;;;;;;;;;;;;;;;17.74;96.15;102110.56;4862119;29;21010;-81
2022/05/20 08:29:57;;;;;;;10.27;5.28;;;;;;;17.65;98.48;102110.63;4871557;29;19946;-81
2022/05/20 08:32:25;;;;;;;8.07;4.90;;;;;;;17.60;99.65;102112.44;4840674;29;20696;-81
2022/05/20 08:34:54;;;;;;;11.45;5.63;;;;;;;17.60;99.81;102111.53;4864240;29;20041;-80
2022/05/20 08:37:22;;;;;;;9.63;5.00;;;;;;;17.58;99.61;102108.91;4859125;29;20041;-80
2022/05/20 08:39:51;;;;;;;7.25;4.88;;;;;;;17.56;99.12;102099.13;4815308;29;20045;-80
2022/05/20 08:42:29;;;;;;;9.32;6.28;;;;;;;17.58;99.66;102097.34;4809927;29;20053;-82
2022/05/20 08:45:01;;;;;;;8.55;5.78;;;;;;;17.60;99.12;102090.22;4849918;29;20395;-83
2022/05/20 08:47:29;;;;;;;8.75;5.43;;;;;;;17.61;98.91;102090.22;4870019;29;20053;-82
2022/05/20 08:50:04;;;;;;;9.15;5.25;;;;;;;17.56;98.37;102078.72;4861758;29;20064;-81
2022/05/20 08:52:32;;;;;;;8.25;5.10;;;;;;;17.52;98.52;102075.19;4873542;29;20064;-80
2022/05/20 08:55:00;;;;;;;10.10;5.35;;;;;;;17.55;99.29;102074.25;4818215;29;20531;-81
2022/05/20 08:57:57;;;;;;;8.80;5.35;;;;;;;17.59;97.94;102076.00;4856714;29;20391;-81
2022/05/20 09:00:29;;;;;;;6.82;4.32;;;;;;;17.67;98.25;102065.28;4867607;29;20050;-81
2022/05/20 09:02:57;;;;;;;5.38;4.10;;;;;;;17.77;98.36;102059.03;4870813;29;20044;-80
2022/05/20 09:05:31;;;;;;;8.85;4.18;;;;;;;17.91;98.48;102054.47;4866945;29;20961;-80
2022/05/20 09:08:01;;;;;;;6.70;4.20;;;;;;;18.14;100.00;102042.72;4874096;29;20543;-82
2022/05/20 09:10:44;;;;;;;8.80;4.20;;;;;;;18.34;95.90;102041.66;4852727;29;20049;-81
2022/05/20 09:13:20;;;;;;;5.63;4.07;;;;;;;18.47;95.39;102043.31;4888068;29;20041;-81
2022/05/20 09:16:01;;;;;;;5.20;2.97;;;;;;;18.52;94.69;102041.44;4856475;29;20049;-80
2022/05/20 09:18:39;;;;;;;8.07;4.18;;;;;;;18.61;94.21;102038.69;4865548;29;20414;-81
2022/05/20 09:21:23;;;;;;;7.68;3.47;;;;;;;18.67;92.82;102041.28;4867173;29;20057;-81
2022/05/20 09:23:55;;;;;;;6.30;3.80;;;;;;;18.75;93.22;102037.63;4862913;29;20056;-81
2022/05/20 09:26:30;;;;;;;5.13;3.65;;;;;;;18.80;92.91;102025.13;4863945;29;20056;-81
2022/05/20 09:29:31;;;;;;;4.78;3.75;;;;;;;18.81;91.90;102025.16;4876908;29;20045;-80
2022/05/20 09:32:28;;;;;;;6.47;3.55;;;;;;;18.79;91.32;102020.66;4857398;29;20037;-80
2022/05/20 09:35:24;;;;;;;4.18;3.08;;;;;;;18.75;90.58;102014.50;4855295;29;20053;-80
2022/05/20 09:37:55;;;;;;;5.35;3.13;;;;;;;18.79;91.18;102012.66;4863340;29;20423;-81
2022/05/20 09:40:37;;;;;;;6.13;2.97;;;;;;;18.85;91.64;101999.28;4840513;29;20049;-81
2022/05/20 09:43:29;;;;;;;3.50;3.20;;;;;;;18.92;89.97;102002.75;4844728;29;20042;-82
2022/05/20 09:46:03;;;;;;;5.85;3.35;;;;;;;18.96;89.72;102000.03;4870313;29;20064;-81
2022/05/20 09:48:38;;;;;;;7.35;3.55;;;;;;;19.03;89.58;101991.00;4841058;29;20275;-81
2022/05/20 09:51:17;;;;;;;11.13;3.72;;;;;;;19.07;89.50;101979.41;4865642;29;20056;-82
2022/05/20 09:54:05;;;;;;;5.90;3.30;;;;;;;19.11;88.84;101980.25;4848493;29;20156;-80
2022/05/20 09:56:38;;;;;;;6.68;3.30;;;;;;;19.14;89.25;101976.63;4871040;29;20177;-80
2022/05/20 09:59:29;;;;;;;6.00;3.30;;;;;;;19.20;88.69;101971.19;4848309;29;20061;-80
2022/05/20 10:02:04;;;;;;;4.32;3.10;;;;;;;19.27;88.82;101976.41;4852341;29;20041;-80
2022/05/20 10:04:56;;;;;;;9.05;3.78;;;;;;;19.31;86.51;101973.72;4854670;29;20168;-80
2022/05/20 10:07:39;;;;;;;3.78;3.00;;;;;;;19.32;86.98;101962.09;4849121;29;20515;-80
2022/05/20 10:10:40;;;;;;;7.15;3.00;;;;;;;19.32;84.08;101952.31;4870444;29;20391;-80
2022/05/20 10:13:23;;;;;;;7.53;3.40;;;;;;;19.31;86.34;101939.84;4864320;29;20041;-81
2022/05/20 10:16:03;;;;;;;5.53;3.45;;;;;;;19.28;86.68;101930.09;4833791;29;20056;-81
2022/05/20 10:18:58;;;;;;;7.53;3.60;;;;;;;19.29;86.44;101918.47;4841286;29;20233;-80
2022/05/20 10:21:29;;;;;;;7.38;3.65;;;;;;;19.27;87.41;101911.41;4850821;29;20060;-79
2022/05/20 10:24:17;;;;;;;6.05;2.90;;;;;;;19.32;89.16;101914.91;4868192;29;20132;-80
2022/05/20 10:27:06;;;;;;;3.97;3.13;;;;;;;19.37;88.12;101902.31;4880097;29;20057;-79
2022/05/20 10:32:58;;;;;;;8.27;2.97;;;;;;;19.35;86.70;101885.44;4847050;29;20160;-80
2022/05/20 10:35:52;;;;;;;5.18;3.60;;;;;;;19.31;84.66;101897.09;4865246;29;20053;-80
2022/05/20 10:38:37;;;;;;;4.43;2.97;;;;;;;19.27;86.45;101885.56;4848288;29;20056;-79
2022/05/20 10:41:26;;;;;;;6.07;3.50;;;;;;;19.28;86.35;101892.69;4858847;29;20653;-81
2022/05/20 10:50:31;;;;;;;6.95;4.63;;;;;;;19.46;85.93;101877.22;4859635;29;20060;-82
2022/05/20 10:53:19;;;;;;;7.25;4.65;;;;;;;19.55;87.05;101881.56;4876609;29;20423;-81
2022/05/20 10:55:59;;;;;;;6.47;3.85;;;;;;;19.59;85.68;101886.81;4844495;29;20076;-81
2022/05/20 10:58:34;;;;;;;6.30;3.40;;;;;;;19.68;85.83;101875.06;4850677;29;20064;-81
2022/05/20 11:01:28;;;;;;;5.38;3.35;;;;;;;19.75;86.53;101875.84;4865987;29;20033;-81
2022/05/20 11:04:25;;;;;;;10.65;4.50;;;;;;;19.77;85.49;101857.97;4830909;29;20407;-81
2022/05/20 11:07:31;;;;;;;5.88;3.85;;;;;;;19.75;85.07;101849.97;4872103;29;20067;-81
2022/05/20 11:10:18;;;;;;;3.92;3.50;;;;;;;19.75;84.91;101844.63;4859245;29;20657;-80
2022/05/20 11:13:06;;;;;;;6.85;3.75;;;;;;;19.75;82.09;101836.63;4858372;29;20045;-81
2022/05/20 11:15:43;;;;;;;4.07;2.95;;;;;;;19.76;82.70;101832.16;4871813;29;20566;-80
2022/05/20 11:18:31;;;;;;;7.32;3.47;;;;;;;19.81;83.22;101823.16;4868206;29;20049;-82
2022/05/20 11:21:03;;;;;;;22.23;6.03;;;;;;;19.94;83.94;101815.72;4845955;29;20057;-80
2022/05/20 11:24:08;;;;;;;7.72;4.25;;;;;;;20.08;82.23;101802.09;4878604;29;20049;-79
2022/05/20 11:27:07;;;;;;;5.13;3.20;;;;;;;20.13;81.44;101804.66;4855097;29;20422;-80
2022/05/20 11:30:07;;;;;;;7.93;3.85;;;;;;;20.19;82.23;101796.50;4869283;29;20422;-79
2022/05/20 11:33:24;;;;;;;9.70;5.35;;;;;;;20.23;81.34;101785.69;4863567;29;20063;-81
2022/05/20 11:36:04;;;;;;;7.13;4.57;;;;;;;20.30;82.95;101774.84;4837456;29;20053;-81
2022/05/20 11:38:51;;;;;;;;;;;;;;;20.33;79.72;101761.41;4862291;29;20048;-81
2022/05/20 11:41:31;;;;;;;5.93;4.43;;;;;;;20.33;81.44;101751.56;4856931;29;20135;-80
2022/05/20 11:44:18;;;;;;;21.63;5.65;;;;;;;20.24;78.69;101746.44;4851142;29;20059;-81
2022/05/20 11:46:55;;;;;;;6.27;4.63;;;;;;;20.22;80.50;101750.94;4855435;29;20513;-81
2022/05/20 11:49:55;;;;;;;14.90;5.72;;;;;;;20.31;81.03;101733.78;4848514;29;20055;-81
2022/05/20 11:52:24;;;;;;;12.32;5.47;;;;;;;20.43;79.54;101736.16;4871910;29;20041;-81
2022/05/20 11:55:01;;;;;;;7.07;4.10;;;;;;;20.53;80.04;101729.69;4865163;29;20052;-81
2022/05/20 11:58:02;;;;;;;7.93;4.90;;;;;;;20.64;79.40;101724.09;4860450;29;20044;-81
2022/05/20 12:00:32;;;;;;;7.40;4.32;;;;;;;20.78;77.35;101710.38;4858262;29;20048;-81
2022/05/20 12:03:07;;;;;;;5.88;3.40;;;;;;;20.91;76.81;101705.56;4881085;29;20041;-82
2022/05/20 12:05:39;;;;;;;6.47;3.90;;;;;;;21.03;75.72;101710.59;4847501;29;20056;-80
2022/05/20 12:08:08;;;;;;;6.13;4.03;;;;;;;21.06;75.23;101691.75;4867971;29;20549;-81
2022/05/20 12:10:47;;;;;;;4.65;3.88;;;;;;;21.14;75.96;101683.50;4868211;29;20037;-81
2022/05/20 12:13:26;;;;;;;6.85;4.15;;;;;;;21.22;75.08;101665.41;4848507;29;20072;-81
2022/05/20 12:16:15;;;;;;;4.75;4.30;;;;;;;21.27;73.05;101658.13;4874603;29;20407;-81